Alert, Canada
Current Conditions -  °F | °C
As of 5:00 AM on Thursday 23 Oct 2014 (Local Time) from CYLT Reporting Station
Light Snow Light Snow  
Wind Chill: -18°   Ceiling: 3500
Heat Index:   Visibility: 10mi
Dew Point: -9°   Wind: 12mph
Humidity: 66%   Direction: 230°SW
Pressure: 29.9"   Gusts: NA
Location:  82.47°N, 62.5°W
Report Text: CYLT 230900Z 23010KT 10SM -SN OVC035 M18/M23 A2990 RMK SC8 SLP129
Loading
Personal Weather Stations






























Interactive Weather Map
Tropical Storm Tracking
New forecast layout! Learn more

10-Day Weather Forecast

Advertisements
Track Severe Weather on mobile